Harare, Zimbabwe
Current Conditions -  °F | °C
As of 6:00 PM on Wednesday 26 Nov 2014 (Local Time) from FVHA Reporting Station
Clear Clear  
Wind Chill: 82°   Ceiling: Unl
Heat Index: 82°   Visibility: 6mi
Dew Point: 43°   Wind: 7mph
Humidity: 25%   Direction: 140°SE
Pressure: 30.06"   Gusts: NA
Location:  17.82°S, 31.05°E
Report Text: FVHA 261600Z 14006KT CAVOK 28/06 Q1018 NOSIG
Loading
Personal Weather Stations






























Interactive Weather Map New forecast layout! Learn more

10-Day Weather Forecast

Advertisements
Track Severe Weather on mobile